Time;durP1;ratioP1;P1;durP2;ratioP2;P2;SDS_P1;SDS_P2;PMS_P1;PMS_P2;Temp;Humidity;BMP_temperature;BMP_pressure;BME280_temperature;BME280_humidity;BME280_pressure;Samples;Min_cycle;Max_cycle;Signal;HPM_P1;HPM_P2
2023/07/07 00:58:14;;;;;;;;;;;;;;;17.80;57.76;100110.81;1087360;54;19938;-82
2023/07/07 00:59:16;;;;;;;;;;;;;;;17.77;57.77;100112.00;1087246;47;19947;-82
2023/07/07 01:00:20;;;;;;;;;;;;;;;17.78;57.70;100110.97;1087249;47;19939;-80
2023/07/07 01:01:21;;;;;;;;;;;;;;;17.80;57.79;100108.09;1087282;47;19938;-81
2023/07/07 01:02:28;;;;;;;;;;;;;;;17.82;57.41;100112.28;1087221;47;19938;-82
2023/07/07 01:03:31;;;;;;;;;;;;;;;17.85;57.54;100114.63;1087350;54;19943;-82
2023/07/07 01:04:37;;;;;;;;;;;;;;;17.89;57.33;100107.78;1087081;47;19946;-81
2023/07/07 01:05:38;;;;;;;;;;;;;;;17.93;57.17;100111.78;1087320;47;19946;-82
2023/07/07 01:06:43;;;;;;;;;;;;;;;17.98;57.16;100105.84;1087334;54;19943;-82
2023/07/07 01:07:51;;;;;;;;;;;;;;;18.02;57.10;100106.28;1087305;47;19938;-81
2023/07/07 01:09:02;;;;;;;;;;;;;;;18.05;56.83;100114.00;1087296;47;19938;-82
2023/07/07 01:10:04;;;;;;;;;;;;;;;18.02;57.08;100112.53;1087860;54;19990;-82
2023/07/07 01:11:07;;;;;;;;;;;;;;;18.06;56.93;100112.97;1087585;54;19973;-81
2023/07/07 01:12:14;;;;;;;;;;;;;;;18.04;56.77;100115.88;1087424;47;19938;-82
2023/07/07 01:13:18;;;;;;;;;;;;;;;18.08;56.49;100110.91;1087906;54;19942;-80
2023/07/07 01:14:21;;;;;;;;;;;;;;;17.99;56.84;100110.22;1087852;54;20005;-79
2023/07/07 01:15:25;;;;;;;;;;;;;;;17.99;57.35;100112.06;1087434;47;19972;-82
2023/07/07 01:16:32;;;;;;;;;;;;;;;18.02;57.02;100117.13;1087224;47;19965;-81
2023/07/07 01:17:41;;;;;;;;;;;;;;;18.02;57.11;100114.41;1087591;47;19976;-83
2023/07/07 01:18:47;;;;;;;;;;;;;;;18.00;56.91;100108.34;1087641;47;19942;-82
2023/07/07 01:20:04;;;;;;;;;;;;;;;18.01;57.39;100112.72;1087653;54;20343;-82
2023/07/07 01:21:12;;;;;;;;;;;;;;;17.99;57.21;100112.94;1087826;54;20006;-82
2023/07/07 01:22:23;;;;;;;;;;;;;;;17.92;57.41;100122.78;1087744;47;19950;-82
2023/07/07 01:23:39;;;;;;;;;;;;;;;17.94;57.09;100123.44;1087759;47;19926;-82
2023/07/07 01:24:56;;;;;;;;;;;;;;;17.97;56.88;100120.38;1087854;54;19978;-82
2023/07/07 01:26:16;;;;;;;;;;;;;;;17.97;56.95;100119.53;1087633;47;19943;-82
2023/07/07 01:27:42;;;;;;;;;;;;;;;17.96;56.99;100120.53;1087837;54;19946;-83
2023/07/07 01:28:53;;;;;;;;;;;;;;;17.95;57.17;100122.41;1087837;54;19943;-82
2023/07/07 01:30:11;;;;;;;;;;;;;;;17.86;57.86;100118.97;1087727;47;19957;-82
2023/07/07 01:31:17;;;;;;;;;;;;;;;17.74;57.66;100120.53;1087675;54;19943;-81
2023/07/07 01:32:21;;;;;;;;;;;;;;;17.65;57.90;100111.66;1087659;47;19939;-81
2023/07/07 01:33:23;;;;;;;;;;;;;;;17.67;57.67;100119.56;1087692;47;19946;-81
2023/07/07 01:34:27;;;;;;;;;;;;;;;17.57;58.03;100118.00;1087832;47;19949;-81
2023/07/07 01:35:28;;;;;;;;;;;;;;;17.49;59.03;100118.13;1087614;54;20408;-81
2023/07/07 01:36:33;;;;;;;;;;;;;;;17.52;58.09;100123.16;1087501;47;19939;-81
2023/07/07 01:37:34;;;;;;;;;;;;;;;17.57;57.80;100115.31;1087857;54;20245;-81
2023/07/07 01:38:39;;;;;;;;;;;;;;;17.55;57.59;100111.97;1087823;47;19938;-81
2023/07/07 01:39:40;;;;;;;;;;;;;;;17.53;57.99;100113.16;1087586;47;19950;-81
2023/07/07 01:40:45;;;;;;;;;;;;;;;17.49;58.41;100115.41;1087577;54;19998;-81
2023/07/07 01:41:52;;;;;;;;;;;;;;;17.53;58.58;100108.63;1087725;47;19954;-82
2023/07/07 01:43:01;;;;;;;;;;;;;;;17.58;58.09;100125.09;1087472;47;19946;-82
2023/07/07 01:44:06;;;;;;;;;;;;;;;17.62;57.97;100112.03;1087445;54;19942;-82
2023/07/07 01:45:15;;;;;;;;;;;;;;;17.60;57.97;100114.13;1087420;54;19942;-82
2023/07/07 01:46:22;;;;;;;;;;;;;;;17.60;58.39;100117.66;1088526;39;20218;-81
2023/07/07 01:47:28;;;;;;;;;;;;;;;17.60;58.43;100112.25;1087664;47;19942;-81
2023/07/07 01:48:34;;;;;;;;;;;;;;;17.60;58.33;100119.53;1087314;54;19943;-82
2023/07/07 01:49:41;;;;;;;;;;;;;;;17.60;58.45;100120.34;1087233;47;19949;-82
2023/07/07 01:50:42;;;;;;;;;;;;;;;17.57;58.31;100118.00;1087169;47;19943;-81
2023/07/07 01:51:48;;;;;;;;;;;;;;;17.60;58.34;100120.34;1087149;47;20011;-82
2023/07/07 01:52:51;;;;;;;;;;;;;;;17.60;58.16;100114.94;1087186;47;19966;-81
2023/07/07 01:53:56;;;;;;;;;;;;;;;17.62;58.25;100126.41;1087100;47;19950;-80
2023/07/07 01:54:58;;;;;;;;;;;;;;;17.64;57.96;100122.69;1087114;54;19942;-81
2023/07/07 01:56:02;;;;;;;;;;;;;;;17.66;57.77;100123.34;1086847;47;19945;-81
2023/07/07 01:57:04;;;;;;;;;;;;;;;17.65;57.79;100127.06;1086851;47;19976;-81
2023/07/07 01:58:10;;;;;;;;;;;;;;;17.67;57.62;100122.28;1087387;47;19946;-82
2023/07/07 01:59:12;;;;;;;;;;;;;;;17.68;57.98;100121.25;1087572;54;19966;-81
2023/07/07 02:00:16;;;;;;;;;;;;;;;17.65;57.64;100119.78;1087460;47;19943;-82
2023/07/07 02:01:20;;;;;;;;;;;;;;;17.66;57.81;100117.94;1087711;54;19950;-82
2023/07/07 02:02:25;;;;;;;;;;;;;;;17.62;57.73;100118.28;1087656;47;19938;-82
2023/07/07 02:03:29;;;;;;;;;;;;;;;17.64;57.64;100110.00;1087528;47;19949;-82
2023/07/07 02:04:32;;;;;;;;;;;;;;;17.61;58.68;100121.19;1087633;47;19942;-82
2023/07/07 02:05:33;;;;;;;;;;;;;;;17.45;59.25;100116.84;1087523;47;19943;-81
2023/07/07 02:06:37;;;;;;;;;;;;;;;17.45;58.60;100119.53;1087498;54;20019;-82
2023/07/07 02:07:40;;;;;;;;;;;;;;;17.48;58.53;100121.03;1087651;54;19965;-81
2023/07/07 02:08:44;;;;;;;;;;;;;;;17.42;59.12;100114.50;1087839;54;19957;-82
2023/07/07 02:09:45;;;;;;;;;;;;;;;17.33;59.65;100121.88;1087464;47;20017;-81
2023/07/07 02:10:48;;;;;;;;;;;;;;;17.35;59.02;100116.28;1087409;47;19943;-81
2023/07/07 02:11:49;;;;;;;;;;;;;;;17.30;59.41;100114.97;1087549;47;19942;-81
2023/07/07 02:12:52;;;;;;;;;;;;;;;17.21;59.90;100107.16;1087780;47;19986;-82
2023/07/07 02:13:53;;;;;;;;;;;;;;;17.19;59.79;100112.75;1087886;54;19958;-81
2023/07/07 02:14:57;;;;;;;;;;;;;;;17.22;59.58;100109.66;1087540;47;19942;-81
2023/07/07 02:15:57;;;;;;;;;;;;;;;17.03;60.57;100115.63;1087419;54;19973;-81
2023/07/07 02:17:03;;;;;;;;;;;;;;;17.02;60.30;100116.66;1087662;54;20625;-83
2023/07/07 02:18:04;;;;;;;;;;;;;;;16.99;60.46;100113.31;1087798;54;19978;-80
2023/07/07 02:19:07;;;;;;;;;;;;;;;16.89;61.03;100112.72;1091759;39;20208;-81
2023/07/07 02:20:09;;;;;;;;;;;;;;;16.82;60.75;100118.00;1087646;54;19942;-81
2023/07/07 02:21:12;;;;;;;;;;;;;;;16.74;61.01;100119.94;1087162;54;19939;-81
2023/07/07 02:22:13;;;;;;;;;;;;;;;16.79;60.72;100107.56;1087322;47;19946;-81
2023/07/07 02:23:17;;;;;;;;;;;;;;;16.82;60.76;100112.59;1088857;31;20619;-82
2023/07/07 02:24:17;;;;;;;;;;;;;;;16.79;60.75;100106.75;1087295;47;19963;-82
2023/07/07 02:25:21;;;;;;;;;;;;;;;16.76;61.23;100112.50;1087271;47;19963;-81
2023/07/07 02:26:22;;;;;;;;;;;;;;;16.79;60.75;100112.13;1087176;47;19995;-81
2023/07/07 02:27:25;;;;;;;;;;;;;;;16.78;61.26;100110.47;1087177;47;19946;-81
2023/07/07 02:28:26;;;;;;;;;;;;;;;16.84;60.48;100112.41;1087146;47;19941;-81
2023/07/07 02:29:30;;;;;;;;;;;;;;;16.85;60.53;100116.78;1087253;54;19975;-82
2023/07/07 02:30:34;;;;;;;;;;;;;;;16.78;61.15;100110.47;1087146;46;19963;-83
2023/07/07 02:31:37;;;;;;;;;;;;;;;16.80;61.05;100114.66;1087239;47;19951;-81
2023/07/07 02:32:42;;;;;;;;;;;;;;;16.77;61.20;100117.69;1087230;47;20014;-82
2023/07/07 02:33:45;;;;;;;;;;;;;;;16.82;61.04;100111.75;1087156;47;19939;-81
2023/07/07 02:34:47;;;;;;;;;;;;;;;16.84;60.97;100120.50;1087632;46;19961;-81
2023/07/07 02:35:51;;;;;;;;;;;;;;;16.85;60.90;100114.09;1087083;47;19966;-81
2023/07/07 02:36:52;;;;;;;;;;;;;;;16.86;61.01;100123.06;1087033;47;20007;-81
2023/07/07 02:37:56;;;;;;;;;;;;;;;16.79;61.36;100123.75;1089643;39;20531;-81
2023/07/07 02:39:35;;;;;;;;;;;;;;;16.75;61.16;100116.22;1087538;54;19973;-85
2023/07/07 08:03:46;;;;;;;;;;;;;;;24.71;37.17;100162.81;1087629;54;19942;-87
2023/07/07 08:04:46;;;;;;;;;;;;;;;24.51;37.54;100161.25;1087052;54;19942;-86
2023/07/07 08:05:50;;;;;;;;;;;;;;;24.77;37.25;100167.34;1087235;47;19948;-88
2023/07/07 08:06:51;;;;;;;;;;;;;;;24.75;37.24;100162.09;1086900;54;19942;-88
2023/07/07 08:07:54;;;;;;;;;;;;;;;24.86;37.00;100159.63;1086717;47;19942;-87
2023/07/07 08:08:55;;;;;;;;;;;;;;;24.98;36.79;100165.13;1087003;54;19942;-89
2023/07/07 08:09:59;;;;;;;;;;;;;;;25.16;36.56;100158.66;1086846;47;19962;-87
2023/07/07 08:11:01;;;;;;;;;;;;;;;25.24;36.48;100155.56;1087040;47;19943;-87
2023/07/07 08:12:05;;;;;;;;;;;;;;;25.38;36.55;100156.16;1086943;54;19943;-87
2023/07/07 08:13:06;;;;;;;;;;;;;;;25.54;36.19;100154.59;1087150;54;19942;-87
2023/07/07 08:14:09;;;;;;;;;;;;;;;25.66;36.27;100155.41;1087660;39;21156;-87
2023/07/07 08:15:14;;;;;;;;;;;;;;;25.72;35.38;100147.28;1086629;47;20851;-89
2023/07/07 08:16:14;;;;;;;;;;;;;;;25.77;35.85;100150.16;1087639;39;20203;-89
2023/07/07 08:17:18;;;;;;;;;;;;;;;25.82;35.84;100158.44;1086824;54;19942;-86
2023/07/07 08:18:19;;;;;;;;;;;;;;;25.98;35.53;100145.88;1086621;47;20840;-86
2023/07/07 08:19:25;;;;;;;;;;;;;;;26.05;35.43;100151.22;1086916;54;19966;-87
2023/07/07 08:20:27;;;;;;;;;;;;;;;26.05;34.80;100148.47;1086522;47;21010;-86
2023/07/07 08:21:30;;;;;;;;;;;;;;;26.23;35.22;100144.72;1086784;47;19943;-86
2023/07/07 08:22:31;;;;;;;;;;;;;;;26.20;34.75;100142.50;1086930;54;19966;-87
2023/07/07 08:23:35;;;;;;;;;;;;;;;26.09;35.04;100142.31;1088806;39;20598;-86
2023/07/07 08:24:37;;;;;;;;;;;;;;;26.21;35.16;100155.94;1086776;54;19965;-85
2023/07/07 08:25:40;;;;;;;;;;;;;;;26.37;34.98;100147.97;1086884;54;20701;-85
2023/07/07 08:26:41;;;;;;;;;;;;;;;26.57;34.93;100142.03;1090680;39;20389;-86
2023/07/07 08:27:44;;;;;;;;;;;;;;;26.58;34.52;100144.50;1086855;54;19949;-85
2023/07/07 08:28:45;;;;;;;;;;;;;;;26.65;34.64;100146.25;1086761;54;20820;-86
2023/07/07 08:29:48;;;;;;;;;;;;;;;26.62;34.60;100148.44;1086702;54;19942;-86
2023/07/07 08:30:49;;;;;;;;;;;;;;;26.81;34.33;100159.16;1086594;47;19974;-84
2023/07/07 08:31:54;;;;;;;;;;;;;;;26.94;33.84;100147.84;1086568;47;19962;-84
2023/07/07 08:32:54;;;;;;;;;;;;;;;26.93;34.34;100150.84;1086894;54;19942;-86
2023/07/07 08:33:58;;;;;;;;;;;;;;;26.99;34.42;100151.75;1087637;39;20783;-86
2023/07/07 08:35:01;;;;;;;;;;;;;;;27.17;34.04;100147.88;1086740;47;19938;-86
2023/07/07 08:36:04;;;;;;;;;;;;;;;27.28;34.09;100140.63;1086992;39;21172;-85
2023/07/07 08:37:06;;;;;;;;;;;;;;;27.41;33.90;100145.72;1086672;54;19942;-85
2023/07/07 08:38:09;;;;;;;;;;;;;;;27.40;33.58;100146.81;1086418;47;19950;-86
2023/07/07 08:39:11;;;;;;;;;;;;;;;27.07;33.68;100148.56;1086672;54;20667;-83
2023/07/07 08:40:16;;;;;;;;;;;;;;;26.82;33.58;100146.28;1086805;47;19977;-87
2023/07/07 08:41:17;;;;;;;;;;;;;;;26.66;34.23;100151.50;1086383;47;19997;-84
2023/07/07 08:42:21;;;;;;;;;;;;;;;26.85;33.93;100154.81;1086532;47;19945;-86
2023/07/07 08:43:28;;;;;;;;;;;;;;;26.94;34.06;100156.06;1086481;47;19939;-86
2023/07/07 08:44:30;;;;;;;;;;;;;;;27.15;33.88;100150.06;1086571;47;19943;-85
2023/07/07 08:45:34;;;;;;;;;;;;;;;27.36;33.69;100148.41;1086555;54;19948;-85
2023/07/07 08:46:40;;;;;;;;;;;;;;;27.51;33.25;100151.38;1086416;47;19939;-88
2023/07/07 08:47:50;;;;;;;;;;;;;;;27.67;33.29;100146.09;1086607;54;20045;-85
2023/07/07 08:48:56;;;;;;;;;;;;;;;27.77;32.68;100151.72;1087024;39;20567;-83
2023/07/07 08:50:02;;;;;;;;;;;;;;;27.93;32.51;100140.88;1086533;47;19945;-85
2023/07/07 08:51:09;;;;;;;;;;;;;;;27.92;32.42;100141.97;1086439;47;19938;-85
2023/07/07 08:52:18;;;;;;;;;;;;;;;27.97;32.55;100142.00;1087099;39;20611;-87
2023/07/07 08:53:31;;;;;;;;;;;;;;;27.95;32.44;100141.47;1086796;54;19967;-87
2023/07/07 08:54:38;;;;;;;;;;;;;;;28.11;32.58;100136.97;1089005;39;20677;-84
2023/07/07 08:55:43;;;;;;;;;;;;;;;28.19;32.31;100139.28;1086511;47;19942;-86
2023/07/07 08:56:51;;;;;;;;;;;;;;;28.44;32.47;100141.41;1088197;39;20169;-85
2023/07/07 08:57:55;;;;;;;;;;;;;;;28.60;32.32;100134.09;1086700;54;19942;-87
2023/07/07 08:59:06;;;;;;;;;;;;;;;28.71;32.10;100132.31;1086961;46;19978;-85
2023/07/07 09:00:13;;;;;;;;;;;;;;;28.68;31.82;100124.56;1086582;47;19968;-86
2023/07/07 09:01:20;;;;;;;;;;;;;;;28.85;31.43;100123.59;1088053;39;20833;-86
2023/07/07 09:02:34;;;;;;;;;;;;;;;29.03;31.71;100130.59;1086561;47;19939;-85
2023/07/07 09:03:48;;;;;;;;;;;;;;;29.24;31.26;100132.34;1086608;54;20771;-85
2023/07/07 09:04:56;;;;;;;;;;;;;;;29.21;30.35;100121.03;1086607;47;19945;-85
2023/07/07 09:06:04;;;;;;;;;;;;;;;29.25;31.33;100135.94;1086711;54;20019;-85
2023/07/07 09:07:19;;;;;;;;;;;;;;;29.19;30.95;100123.25;1086566;47;20814;-85
2023/07/07 09:08:27;;;;;;;;;;;;;;;29.35;30.90;100130.50;1086749;46;19938;-86
2023/07/07 09:09:40;;;;;;;;;;;;;;;29.38;30.94;100124.44;1086663;47;20018;-85
2023/07/07 09:10:48;;;;;;;;;;;;;;;29.37;30.90;100131.06;1086800;54;19949;-85
2023/07/07 09:12:02;;;;;;;;;;;;;;;29.42;30.46;100124.78;1086726;54;19982;-84
2023/07/07 09:13:08;;;;;;;;;;;;;;;29.40;30.45;100124.19;1086859;47;19939;-85
2023/07/07 09:14:11;;;;;;;;;;;;;;;29.30;30.97;100124.94;1086669;47;19963;-85
2023/07/07 09:15:18;;;;;;;;;;;;;;;29.42;30.65;100122.81;1087113;39;21094;-86
2023/07/07 09:16:22;;;;;;;;;;;;;;;29.66;30.45;100127.03;1086873;54;19975;-84
2023/07/07 09:17:27;;;;;;;;;;;;;;;29.90;30.35;100119.13;1087181;54;19974;-84
2023/07/07 09:18:32;;;;;;;;;;;;;;;29.93;30.00;100118.63;1086700;47;19963;-84
2023/07/07 09:19:37;;;;;;;;;;;;;;;29.99;30.00;100117.50;1086712;47;19938;-85
2023/07/07 09:20:38;;;;;;;;;;;;;;;29.79;30.17;100120.19;1086996;54;19973;-84
2023/07/07 09:21:44;;;;;;;;;;;;;;;29.87;29.74;100111.38;1086788;47;19945;-85
2023/07/07 09:22:51;;;;;;;;;;;;;;;29.87;29.96;100114.16;1087052;54;19942;-85
2023/07/07 09:23:56;;;;;;;;;;;;;;;30.14;29.51;100110.34;1087084;54;19951;-84
2023/07/07 09:25:02;;;;;;;;;;;;;;;30.22;29.61;100112.59;1086670;47;19938;-85
2023/07/07 09:26:09;;;;;;;;;;;;;;;30.03;29.59;100115.88;1086615;47;19939;-84
2023/07/07 09:27:13;;;;;;;;;;;;;;;30.18;29.47;100106.78;1086741;47;19963;-85
2023/07/07 09:28:17;;;;;;;;;;;;;;;30.23;29.19;100105.94;1086852;54;19943;-85
2023/07/07 09:29:21;;;;;;;;;;;;;;;30.40;29.35;100099.34;1086719;47;19969;-84
2023/07/07 09:30:27;;;;;;;;;;;;;;;30.16;29.38;100113.66;1086832;47;19945;-85
2023/07/07 09:31:30;;;;;;;;;;;;;;;29.92;29.99;100105.91;1086749;47;19938;-86
2023/07/07 09:33:35;;;;;;;;;;;;;;;29.77;29.85;100105.84;1087434;54;19942;-84
2023/07/07 09:34:36;;;;;;;;;;;;;;;30.04;29.31;100111.19;1086756;47;19966;-83
2023/07/07 09:35:43;;;;;;;;;;;;;;;30.30;29.49;100105.69;1086729;47;19963;-86
2023/07/07 09:36:49;;;;;;;;;;;;;;;30.46;29.00;100103.75;1087993;39;20757;-84
2023/07/07 09:38:02;;;;;;;;;;;;;;;30.77;29.01;100115.59;1086730;54;19950;-84
2023/07/07 09:39:13;;;;;;;;;;;;;;;31.09;28.44;100103.41;1086651;47;19946;-84
2023/07/07 09:40:18;;;;;;;;;;;;;;;31.34;27.97;100103.63;1086798;47;19939;-85
2023/07/07 09:42:44;;;;;;;;;;;;;;;30.77;28.19;100098.25;1086676;54;20785;-85
2023/07/07 09:43:48;;;;;;;;;;;;;;;30.45;28.74;100105.69;1087035;47;19938;-85
2023/07/07 09:44:57;;;;;;;;;;;;;;;30.45;28.67;100096.59;1086960;54;19943;-85
2023/07/07 09:47:13;;;;;;;;;;;;;;;30.66;27.63;100091.91;1087127;54;19938;-86
2023/07/07 09:48:19;;;;;;;;;;;;;;;30.86;27.58;100093.81;1087579;39;20565;-86
2023/07/07 09:49:28;;;;;;;;;;;;;;;30.88;27.07;100082.47;1087129;54;19957;-85
2023/07/07 09:50:32;;;;;;;;;;;;;;;30.67;27.64;100089.97;1087402;54;19949;-86
2023/07/07 09:52:42;;;;;;;;;;;;;;;30.71;27.39;100089.16;1087056;54;19999;-85
2023/07/07 09:53:46;;;;;;;;;;;;;;;30.79;26.94;100087.75;1087137;54;20015;-84
2023/07/07 09:54:50;;;;;;;;;;;;;;;30.93;26.00;100083.28;1086755;47;19961;-84
2023/07/07 09:55:52;;;;;;;;;;;;;;;31.14;26.24;100082.41;1086925;47;19945;-87
2023/07/07 09:56:59;;;;;;;;;;;;;;;31.22;25.55;100074.41;1088383;39;20802;-87
2023/07/07 09:58:04;;;;;;;;;;;;;;;30.94;25.04;100079.44;1086908;47;19938;-86
2023/07/07 09:59:13;;;;;;;;;;;;;;;30.89;24.42;100076.66;1086934;47;19939;-90
2023/07/07 10:00:15;;;;;;;;;;;;;;;30.89;23.81;100078.63;1088476;39;20806;-87
2023/07/07 10:01:18;;;;;;;;;;;;;;;30.80;23.47;100083.88;1087165;39;20983;-86
2023/07/07 10:02:21;;;;;;;;;;;;;;;31.08;22.87;100074.16;1086992;54;19943;-88
2023/07/07 10:03:28;;;;;;;;;;;;;;;30.88;22.89;100080.56;1086948;47;19938;-88
2023/07/07 10:04:29;;;;;;;;;;;;;;;30.94;22.92;100070.31;1086931;54;20682;-88
2023/07/07 10:05:34;;;;;;;;;;;;;;;30.92;22.90;100065.09;1086816;54;19942;-88
2023/07/07 10:06:37;;;;;;;;;;;;;;;30.98;23.36;100063.13;1086920;54;19978;-85
2023/07/07 10:07:42;;;;;;;;;;;;;;;30.93;23.95;100069.50;1087797;39;21026;-88
2023/07/07 10:08:46;;;;;;;;;;;;;;;31.14;23.99;100072.22;1086992;47;19938;-87
2023/07/07 10:09:49;;;;;;;;;;;;;;;31.36;23.73;100069.09;1088948;39;20298;-89
2023/07/07 10:10:55;;;;;;;;;;;;;;;31.30;23.63;100063.88;1086848;47;19963;-85
2023/07/07 10:11:58;;;;;;;;;;;;;;;31.45;23.75;100063.81;1086613;54;19943;-85
2023/07/07 10:12:59;;;;;;;;;;;;;;;31.65;23.38;100062.00;1086882;54;19982;-86
2023/07/07 10:14:04;;;;;;;;;;;;;;;31.69;23.72;100061.19;1086792;47;19955;-85
2023/07/07 10:15:15;;;;;;;;;;;;;;;31.80;23.45;100056.44;1087105;46;19989;-85
2023/07/07 10:16:28;;;;;;;;;;;;;;;32.10;23.55;100060.09;1086565;54;20927;-86
2023/07/07 10:17:36;;;;;;;;;;;;;;;32.21;23.21;100055.28;1086714;54;21112;-85
2023/07/07 10:18:40;;;;;;;;;;;;;;;32.03;23.22;100048.50;1086686;47;19938;-85
2023/07/07 10:19:42;;;;;;;;;;;;;;;32.26;22.99;100051.69;1086960;47;20721;-83
2023/07/07 10:20:45;;;;;;;;;;;;;;;32.36;23.26;100057.13;1086949;54;20793;-88
2023/07/07 10:21:47;;;;;;;;;;;;;;;32.50;23.11;100051.72;1087225;46;19966;-86
2023/07/07 10:22:50;;;;;;;;;;;;;;;32.23;22.91;100047.56;1087246;46;20336;-86
2023/07/07 10:23:53;;;;;;;;;;;;;;;32.38;22.87;100041.06;1087475;47;19978;-86
2023/07/07 10:24:57;;;;;;;;;;;;;;;32.39;22.67;100050.19;1087519;54;19967;-85
2023/07/07 10:25:57;;;;;;;;;;;;;;;32.51;22.81;100047.84;1087756;46;19962;-85
2023/07/07 10:27:01;;;;;;;;;;;;;;;32.62;22.59;100045.78;1087203;47;19963;-86
2023/07/07 10:28:02;;;;;;;;;;;;;;;32.85;22.95;100051.69;1087625;39;20789;-85
2023/07/07 10:29:06;;;;;;;;;;;;;;;32.89;23.04;100047.19;1086965;47;19938;-87
2023/07/07 10:31:11;;;;;;;;;;;;;;;32.73;22.80;100050.09;1088114;39;20951;-84
2023/07/07 10:32:13;;;;;;;;;;;;;;;32.90;22.82;100054.38;1087455;46;19966;-85
2023/07/07 10:33:18;;;;;;;;;;;;;;;32.90;22.50;100046.06;1087579;46;20014;-85
2023/07/07 10:34:25;;;;;;;;;;;;;;;32.87;22.29;100044.72;1087298;47;19943;-84
2023/07/07 10:35:28;;;;;;;;;;;;;;;32.90;21.69;100054.38;1087385;47;19942;-84
2023/07/07 10:36:30;;;;;;;;;;;;;;;32.78;21.76;100049.22;1087119;47;20004;-84
2023/07/07 10:37:36;;;;;;;;;;;;;;;32.93;22.08;100039.97;1087315;39;20827;-84
2023/07/07 10:38:38;;;;;;;;;;;;;;;32.70;21.64;100042.38;1087201;47;19946;-84
2023/07/07 10:39:44;;;;;;;;;;;;;;;32.78;21.65;100036.22;1087102;47;19943;-86
2023/07/07 10:40:47;;;;;;;;;;;;;;;32.82;21.55;100045.59;1087087;54;19942;-82
2023/07/07 10:41:47;;;;;;;;;;;;;;;33.05;21.10;100045.06;1087222;46;19942;-85
2023/07/07 10:42:53;;;;;;;;;;;;;;;33.10;20.80;100045.00;1087041;46;19962;-85
2023/07/07 10:43:54;;;;;;;;;;;;;;;33.24;20.75;100042.34;1087253;47;19943;-86
2023/07/07 10:44:58;;;;;;;;;;;;;;;33.24;20.50;100045.91;1087206;47;19963;-85
2023/07/07 10:45:59;;;;;;;;;;;;;;;33.17;20.34;100041.88;1087312;46;19946;-85
2023/07/07 10:47:02;;;;;;;;;;;;;;;33.44;20.48;100039.31;1087570;46;19923;-86
2023/07/07 10:48:08;;;;;;;;;;;;;;;33.37;20.40;100041.63;1087045;54;19943;-84
2023/07/07 10:49:16;;;;;;;;;;;;;;;33.36;20.22;100037.19;1086844;47;21299;-84
2023/07/07 10:50:20;;;;;;;;;;;;;;;32.88;20.21;100037.22;1087072;47;19938;-85
2023/07/07 10:51:26;;;;;;;;;;;;;;;33.15;20.35;100041.34;1086992;46;19949;-85
2023/07/07 10:52:44;;;;;;;;;;;;;;;33.39;20.01;100036.63;1087016;54;19963;-84
2023/07/07 10:53:53;;;;;;;;;;;;;;;33.48;19.90;100038.72;1087165;47;19963;-84
2023/07/07 10:55:01;;;;;;;;;;;;;;;33.37;19.42;100030.53;1087108;54;19967;-82
2023/07/07 10:56:20;;;;;;;;;;;;;;;33.42;19.58;100027.72;1087415;54;19943;-84
2023/07/07 10:57:24;;;;;;;;;;;;;;;33.45;19.34;100026.28;1087191;47;19942;-86
2023/07/07 10:58:32;;;;;;;;;;;;;;;33.68;19.07;100024.56;1087153;47;19943;-86
2023/07/07 10:59:49;;;;;;;;;;;;;;;33.78;18.80;100025.53;1087243;54;19942;-85
2023/07/07 11:02:01;;;;;;;;;;;;;;;33.88;19.00;100019.84;1087330;54;19954;-85
2023/07/07 11:03:21;;;;;;;;;;;;;;;33.85;18.43;100023.19;1087112;47;19995;-87
2023/07/07 11:05:31;;;;;;;;;;;;;;;33.91;18.84;100022.03;1089962;39;20206;-85
2023/07/07 11:06:37;;;;;;;;;;;;;;;34.10;18.95;100026.72;1087244;47;19938;-85
2023/07/07 11:07:44;;;;;;;;;;;;;;;34.25;18.55;100022.81;1087303;47;19938;-84
2023/07/07 11:08:49;;;;;;;;;;;;;;;34.19;18.53;100022.91;1087390;54;19942;-86
2023/07/07 11:09:58;;;;;;;;;;;;;;;34.29;18.15;100018.31;1087581;54;19972;-83
2023/07/07 11:11:10;;;;;;;;;;;;;;;34.20;18.41;100018.19;1087240;47;19938;-85
2023/07/07 11:12:19;;;;;;;;;;;;;;;33.95;18.77;100020.28;1087342;46;19939;-86
2023/07/07 11:13:25;;;;;;;;;;;;;;;34.04;18.57;100015.69;1086990;47;19953;-85
2023/07/07 11:14:36;;;;;;;;;;;;;;;33.34;19.13;100017.31;1087164;47;19942;-85
2023/07/07 11:15:41;;;;;;;;;;;;;;;33.48;18.77;100019.31;1087165;47;19943;-85
2023/07/07 11:16:50;;;;;;;;;;;;;;;33.43;18.62;100017.44;1087285;54;19942;-84
2023/07/07 11:17:58;;;;;;;;;;;;;;;33.67;18.69;100009.06;1087425;47;19938;-85
2023/07/07 11:19:12;;;;;;;;;;;;;;;33.15;18.72;100013.66;1087029;47;19938;-86
2023/07/07 11:20:24;;;;;;;;;;;;;;;32.86;19.08;100018.16;1093420;39;20675;-85
2023/07/07 11:21:35;;;;;;;;;;;;;;;32.58;18.83;100014.31;1086837;47;20000;-84
2023/07/07 11:22:53;;;;;;;;;;;;;;;32.74;18.91;100014.94;1086783;47;19939;-85
2023/07/07 11:24:06;;;;;;;;;;;;;;;32.14;19.42;100010.56;1087233;47;19942;-84
2023/07/07 11:25:15;;;;;;;;;;;;;;;32.41;19.66;100010.03;1087265;54;19942;-87
2023/07/07 11:26:29;;;;;;;;;;;;;;;32.47;19.40;100008.91;1087083;46;19938;-87
2023/07/07 11:27:43;;;;;;;;;;;;;;;32.50;19.14;100013.81;1087584;47;19943;-86
2023/07/07 11:28:52;;;;;;;;;;;;;;;32.47;19.15;100010.81;1087387;39;20706;-84
2023/07/07 11:29:58;;;;;;;;;;;;;;;32.48;19.33;100013.31;1087093;54;19942;-84
2023/07/07 11:31:08;;;;;;;;;;;;;;;32.16;19.75;100003.63;1086906;47;19939;-86
2023/07/07 11:32:12;;;;;;;;;;;;;;;32.16;19.54;100011.09;1087186;54;19965;-84
2023/07/07 11:33:28;;;;;;;;;;;;;;;32.35;19.65;100009.28;1087322;54;19966;-84
2023/07/07 11:34:37;;;;;;;;;;;;;;;32.34;19.76;100007.66;1086957;46;19970;-83
2023/07/07 11:35:46;;;;;;;;;;;;;;;32.39;19.70;100006.78;1086911;47;19990;-84
2023/07/07 11:36:52;;;;;;;;;;;;;;;32.24;20.08;100010.50;1086724;47;20431;-84
2023/07/07 11:38:11;;;;;;;;;;;;;;;32.38;19.92;100002.34;1087041;54;21173;-83
2023/07/07 11:39:21;;;;;;;;;;;;;;;32.39;20.20;100009.53;1086814;47;19946;-83
2023/07/07 11:40:42;;;;;;;;;;;;;;;32.25;19.02;100009.41;1087471;54;19942;-83
2023/07/07 11:41:53;;;;;;;;;;;;;;;32.00;19.25;100011.22;1087555;54;19943;-84
2023/07/07 11:43:08;;;;;;;;;;;;;;;32.10;19.20;100010.31;1089335;31;20699;-87
2023/07/07 11:44:21;;;;;;;;;;;;;;;32.19;19.16;100002.22;1087415;47;19973;-84
2023/07/07 11:45:31;;;;;;;;;;;;;;;31.97;19.40;100011.81;1087945;39;20257;-86
2023/07/07 11:46:39;;;;;;;;;;;;;;;31.97;19.08;100002.69;1087360;47;20017;-83
2023/07/07 11:48:01;;;;;;;;;;;;;;;31.68;19.73;100003.47;1087551;54;19942;-87
2023/07/07 11:49:09;;;;;;;;;;;;;;;31.85;19.81;100012.19;1087634;47;19950;-84
2023/07/07 11:50:21;;;;;;;;;;;;;;;31.93;19.46;100009.94;1087681;54;19942;-85
2023/07/07 11:51:29;;;;;;;;;;;;;;;31.97;19.79;100010.97;1087790;47;19977;-87
2023/07/07 11:52:42;;;;;;;;;;;;;;;31.90;19.70;100000.25;1087551;47;19935;-85
2023/07/07 11:53:50;;;;;;;;;;;;;;;32.00;19.82;100004.88;1087597;47;19939;-86
2023/07/07 11:55:04;;;;;;;;;;;;;;;32.00;19.93;100010.41;1087445;47;20034;-85
2023/07/07 11:56:12;;;;;;;;;;;;;;;32.04;19.76;100017.84;1087332;47;19949;-85
2023/07/07 11:57:33;;;;;;;;;;;;;;;32.05;19.12;99996.53;1087348;47;19942;-86
2023/07/07 11:58:37;;;;;;;;;;;;;;;32.11;18.90;100011.97;1087168;47;19954;-86
2023/07/07 11:59:55;;;;;;;;;;;;;;;32.10;19.29;99996.50;1087293;54;19950;-86
2023/07/07 12:00:59;;;;;;;;;;;;;;;31.99;19.60;100001.28;1087479;46;19965;-85
2023/07/07 12:02:03;;;;;;;;;;;;;;;31.92;19.31;99991.69;1087017;47;19939;-86
2023/07/07 12:03:22;;;;;;;;;;;;;;;31.75;19.57;99998.44;1086983;47;20682;-84
2023/07/07 12:04:27;;;;;;;;;;;;;;;31.76;19.79;100000.09;1087161;47;19939;-85
2023/07/07 12:05:31;;;;;;;;;;;;;;;31.87;19.36;100003.63;1086933;47;19943;-85
2023/07/07 12:06:36;;;;;;;;;;;;;;;31.97;19.77;99999.94;1086843;54;19942;-86
2023/07/07 12:07:40;;;;;;;;;;;;;;;32.03;19.65;99998.75;1087242;54;19972;-87
2023/07/07 12:08:49;;;;;;;;;;;;;;;32.08;19.63;99995.97;1086835;47;19938;-85